sensor_id;sensor_type;location;lat;lon;timestamp;temperature;humidity
66096;SHT31;53861;53.422;14.530;2023-02-26T00:00:02;1.50;87.35
66096;SHT31;53861;53.422;14.530;2023-02-26T00:02:32;1.51;87.37
66096;SHT31;53861;53.422;14.530;2023-02-26T00:05:02;1.55;85.81
66096;SHT31;53861;53.422;14.530;2023-02-26T00:07:29;1.58;85.89
66096;SHT31;53861;53.422;14.530;2023-02-26T00:09:57;1.68;86.66
66096;SHT31;53861;53.422;14.530;2023-02-26T00:12:26;1.68;87.11
66096;SHT31;53861;53.422;14.530;2023-02-26T00:14:53;1.64;85.31
66096;SHT31;53861;53.422;14.530;2023-02-26T00:17:25;1.64;84.72
66096;SHT31;53861;53.422;14.530;2023-02-26T00:19:56;1.67;86.72
66096;SHT31;53861;53.422;14.530;2023-02-26T00:22:25;1.67;86.05
66096;SHT31;53861;53.422;14.530;2023-02-26T00:24:52;1.57;86.20
66096;SHT31;53861;53.422;14.530;2023-02-26T00:27:19;1.63;85.13
66096;SHT31;53861;53.422;14.530;2023-02-26T00:29:46;1.64;84.05
66096;SHT31;53861;53.422;14.530;2023-02-26T00:32:13;1.67;86.48
66096;SHT31;53861;53.422;14.530;2023-02-26T00:34:42;1.55;86.14
66096;SHT31;53861;53.422;14.530;2023-02-26T00:37:13;1.57;87.20
66096;SHT31;53861;53.422;14.530;2023-02-26T00:39:49;1.54;84.77
66096;SHT31;53861;53.422;14.530;2023-02-26T00:42:17;1.54;85.46
66096;SHT31;53861;53.422;14.530;2023-02-26T00:44:44;1.67;87.16
66096;SHT31;53861;53.422;14.530;2023-02-26T00:47:12;1.58;85.90
66096;SHT31;53861;53.422;14.530;2023-02-26T00:49:44;1.58;87.55
66096;SHT31;53861;53.422;14.530;2023-02-26T00:52:16;1.57;87.79
66096;SHT31;53861;53.422;14.530;2023-02-26T00:54:46;1.61;86.90
66096;SHT31;53861;53.422;14.530;2023-02-26T00:57:13;1.61;86.24
66096;SHT31;53861;53.422;14.530;2023-02-26T00:59:40;1.64;86.19
66096;SHT31;53861;53.422;14.530;2023-02-26T01:02:08;1.63;85.60
66096;SHT31;53861;53.422;14.530;2023-02-26T01:04:35;1.68;85.26
66096;SHT31;53861;53.422;14.530;2023-02-26T01:07:04;1.60;83.84
66096;SHT31;53861;53.422;14.530;2023-02-26T01:09:31;1.64;85.76
66096;SHT31;53861;53.422;14.530;2023-02-26T01:12:03;1.60;86.02
66096;SHT31;53861;53.422;14.530;2023-02-26T01:14:31;1.63;85.42
66096;SHT31;53861;53.422;14.530;2023-02-26T01:17:01;1.67;86.84
66096;SHT31;53861;53.422;14.530;2023-02-26T01:19:32;1.68;85.47
66096;SHT31;53861;53.422;14.530;2023-02-26T01:22:06;1.71;85.58
66096;SHT31;53861;53.422;14.530;2023-02-26T01:24:34;1.70;85.85
66096;SHT31;53861;53.422;14.530;2023-02-26T01:27:03;1.67;84.80
66096;SHT31;53861;53.422;14.530;2023-02-26T01:29:31;1.70;84.38
66096;SHT31;53861;53.422;14.530;2023-02-26T01:32:01;1.73;85.15
66096;SHT31;53861;53.422;14.530;2023-02-26T01:34:33;1.63;85.87
66096;SHT31;53861;53.422;14.530;2023-02-26T01:37:01;1.60;84.29
66096;SHT31;53861;53.422;14.530;2023-02-26T01:39:31;1.64;84.69
66096;SHT31;53861;53.422;14.530;2023-02-26T01:42:04;1.67;85.03
66096;SHT31;53861;53.422;14.530;2023-02-26T01:44:33;1.65;83.13
66096;SHT31;53861;53.422;14.530;2023-02-26T01:47:03;1.65;83.08
66096;SHT31;53861;53.422;14.530;2023-02-26T01:49:32;1.61;84.59
66096;SHT31;53861;53.422;14.530;2023-02-26T01:52:00;1.63;85.07
66096;SHT31;53861;53.422;14.530;2023-02-26T01:54:28;1.67;86.26
66096;SHT31;53861;53.422;14.530;2023-02-26T01:56:56;1.63;85.26
66096;SHT31;53861;53.422;14.530;2023-02-26T01:59:26;1.60;84.57
66096;SHT31;53861;53.422;14.530;2023-02-26T02:01:53;1.64;84.65
66096;SHT31;53861;53.422;14.530;2023-02-26T02:04:22;1.65;85.29
66096;SHT31;53861;53.422;14.530;2023-02-26T02:06:49;1.68;83.66
66096;SHT31;53861;53.422;14.530;2023-02-26T02:09:17;1.67;81.88
66096;SHT31;53861;53.422;14.530;2023-02-26T02:11:48;1.65;84.30
66096;SHT31;53861;53.422;14.530;2023-02-26T02:14:20;1.60;86.26
66096;SHT31;53861;53.422;14.530;2023-02-26T02:16:53;1.57;84.89
66096;SHT31;53861;53.422;14.530;2023-02-26T02:19:44;1.63;83.63
66096;SHT31;53861;53.422;14.530;2023-02-26T02:22:19;1.60;84.57
66096;SHT31;53861;53.422;14.530;2023-02-26T02:25:04;1.60;85.47
66096;SHT31;53861;53.422;14.530;2023-02-26T02:27:34;1.63;83.97
66096;SHT31;53861;53.422;14.530;2023-02-26T02:30:06;1.60;84.97
66096;SHT31;53861;53.422;14.530;2023-02-26T02:32:41;1.60;83.98
66096;SHT31;53861;53.422;14.530;2023-02-26T02:35:11;1.61;86.65
66096;SHT31;53861;53.422;14.530;2023-02-26T02:37:40;1.60;85.10
66096;SHT31;53861;53.422;14.530;2023-02-26T02:40:10;1.61;84.37
66096;SHT31;53861;53.422;14.530;2023-02-26T02:42:41;1.61;85.46
66096;SHT31;53861;53.422;14.530;2023-02-26T02:45:09;1.61;85.00
66096;SHT31;53861;53.422;14.530;2023-02-26T02:47:38;1.58;86.41
66096;SHT31;53861;53.422;14.530;2023-02-26T02:50:09;1.60;84.22
66096;SHT31;53861;53.422;14.530;2023-02-26T02:52:42;1.58;85.23
66096;SHT31;53861;53.422;14.530;2023-02-26T02:55:16;1.58;86.30
66096;SHT31;53861;53.422;14.530;2023-02-26T02:57:45;1.57;87.30
66096;SHT31;53861;53.422;14.530;2023-02-26T03:00:17;1.57;88.00
66096;SHT31;53861;53.422;14.530;2023-02-26T03:02:46;1.57;87.82
66096;SHT31;53861;53.422;14.530;2023-02-26T03:05:16;1.61;87.44
66096;SHT31;53861;53.422;14.530;2023-02-26T03:07:44;1.64;86.86
66096;SHT31;53861;53.422;14.530;2023-02-26T03:10:13;1.65;86.11
66096;SHT31;53861;53.422;14.530;2023-02-26T03:12:40;1.61;87.23
66096;SHT31;53861;53.422;14.530;2023-02-26T03:15:07;1.61;84.80
66096;SHT31;53861;53.422;14.530;2023-02-26T03:17:35;1.58;86.21
66096;SHT31;53861;53.422;14.530;2023-02-26T03:20:08;1.60;84.57
66096;SHT31;53861;53.422;14.530;2023-02-26T03:22:40;1.60;88.08
66096;SHT31;53861;53.422;14.530;2023-02-26T03:25:11;1.58;85.83
66096;SHT31;53861;53.422;14.530;2023-02-26T03:27:41;1.47;86.26
66096;SHT31;53861;53.422;14.530;2023-02-26T03:30:11;1.51;84.82
66096;SHT31;53861;53.422;14.530;2023-02-26T03:32:42;1.53;84.65
66096;SHT31;53861;53.422;14.530;2023-02-26T03:35:14;1.54;84.01
66096;SHT31;53861;53.422;14.530;2023-02-26T03:37:46;1.50;83.78
66096;SHT31;53861;53.422;14.530;2023-02-26T03:40:16;1.50;83.94
66096;SHT31;53861;53.422;14.530;2023-02-26T03:42:45;1.46;84.53
66096;SHT31;53861;53.422;14.530;2023-02-26T03:45:15;1.48;84.67
66096;SHT31;53861;53.422;14.530;2023-02-26T03:47:46;1.51;85.64
66096;SHT31;53861;53.422;14.530;2023-02-26T03:50:15;1.50;83.96
66096;SHT31;53861;53.422;14.530;2023-02-26T03:52:44;1.53;83.86
66096;SHT31;53861;53.422;14.530;2023-02-26T03:55:15;1.48;84.44
66096;SHT31;53861;53.422;14.530;2023-02-26T03:57:42;1.50;85.80
66096;SHT31;53861;53.422;14.530;2023-02-26T04:00:10;1.54;84.70
66096;SHT31;53861;53.422;14.530;2023-02-26T04:02:40;1.55;84.50
66096;SHT31;53861;53.422;14.530;2023-02-26T04:05:10;1.58;84.01
66096;SHT31;53861;53.422;14.530;2023-02-26T04:07:38;1.58;84.02
66096;SHT31;53861;53.422;14.530;2023-02-26T04:10:06;1.51;85.51
66096;SHT31;53861;53.422;14.530;2023-02-26T04:12:34;1.55;85.67
66096;SHT31;53861;53.422;14.530;2023-02-26T04:15:02;1.58;86.27
66096;SHT31;53861;53.422;14.530;2023-02-26T04:17:31;1.57;86.12
66096;SHT31;53861;53.422;14.530;2023-02-26T04:19:58;1.57;85.24
66096;SHT31;53861;53.422;14.530;2023-02-26T04:22:25;1.55;84.23
66096;SHT31;53861;53.422;14.530;2023-02-26T04:24:55;1.47;86.65
66096;SHT31;53861;53.422;14.530;2023-02-26T04:27:25;1.33;88.11
66096;SHT31;53861;53.422;14.530;2023-02-26T04:29:54;1.26;87.70
66096;SHT31;53861;53.422;14.530;2023-02-26T04:32:20;1.15;88.13
66096;SHT31;53861;53.422;14.530;2023-02-26T04:34:48;1.10;87.92
66096;SHT31;53861;53.422;14.530;2023-02-26T04:37:14;1.07;88.43
66096;SHT31;53861;53.422;14.530;2023-02-26T04:39:44;1.10;89.48
66096;SHT31;53861;53.422;14.530;2023-02-26T04:42:11;1.09;90.14
66096;SHT31;53861;53.422;14.530;2023-02-26T04:44:38;1.15;88.78
66096;SHT31;53861;53.422;14.530;2023-02-26T04:47:07;1.13;88.67
66096;SHT31;53861;53.422;14.530;2023-02-26T04:49:34;1.15;89.17
66096;SHT31;53861;53.422;14.530;2023-02-26T04:52:01;1.15;88.89
66096;SHT31;53861;53.422;14.530;2023-02-26T04:54:30;1.10;89.38
66096;SHT31;53861;53.422;14.530;2023-02-26T04:56:58;1.12;88.72
66096;SHT31;53861;53.422;14.530;2023-02-26T04:59:25;1.03;88.49
66096;SHT31;53861;53.422;14.530;2023-02-26T05:01:54;0.99;88.47
66096;SHT31;53861;53.422;14.530;2023-02-26T05:04:23;0.97;89.20
66096;SHT31;53861;53.422;14.530;2023-02-26T05:06:50;0.96;89.58
66096;SHT31;53861;53.422;14.530;2023-02-26T05:09:18;1.02;89.38
66096;SHT31;53861;53.422;14.530;2023-02-26T05:11:45;1.02;89.46
66096;SHT31;53861;53.422;14.530;2023-02-26T05:14:16;1.09;89.09
66096;SHT31;53861;53.422;14.530;2023-02-26T05:16:43;1.06;90.28
66096;SHT31;53861;53.422;14.530;2023-02-26T05:19:10;1.09;90.02
66096;SHT31;53861;53.422;14.530;2023-02-26T05:21:43;1.04;89.89
66096;SHT31;53861;53.422;14.530;2023-02-26T05:24:10;0.95;88.22
66096;SHT31;53861;53.422;14.530;2023-02-26T05:26:37;0.95;90.18
66096;SHT31;53861;53.422;14.530;2023-02-26T05:29:04;0.88;88.08
66096;SHT31;53861;53.422;14.530;2023-02-26T05:31:31;0.80;89.71
66096;SHT31;53861;53.422;14.530;2023-02-26T05:33:58;0.86;90.25
66096;SHT31;53861;53.422;14.530;2023-02-26T05:36:25;0.89;88.74
66096;SHT31;53861;53.422;14.530;2023-02-26T05:38:54;0.89;87.60
66096;SHT31;53861;53.422;14.530;2023-02-26T05:41:21;0.96;89.23
66096;SHT31;53861;53.422;14.530;2023-02-26T05:43:52;0.88;87.46
66096;SHT31;53861;53.422;14.530;2023-02-26T05:46:19;0.82;89.83
66096;SHT31;53861;53.422;14.530;2023-02-26T05:48:46;0.65;87.97
66096;SHT31;53861;53.422;14.530;2023-02-26T05:51:13;0.64;88.92
66096;SHT31;53861;53.422;14.530;2023-02-26T05:53:40;0.52;89.20
66096;SHT31;53861;53.422;14.530;2023-02-26T05:56:11;0.44;89.00
66096;SHT31;53861;53.422;14.530;2023-02-26T05:58:38;0.49;90.63
66096;SHT31;53861;53.422;14.530;2023-02-26T06:01:05;0.45;90.40
66096;SHT31;53861;53.422;14.530;2023-02-26T06:03:32;0.40;88.49
66096;SHT31;53861;53.422;14.530;2023-02-26T06:05:59;0.38;89.84
66096;SHT31;53861;53.422;14.530;2023-02-26T06:08:25;0.28;90.10
66096;SHT31;53861;53.422;14.530;2023-02-26T06:10:52;0.38;90.19
66096;SHT31;53861;53.422;14.530;2023-02-26T06:13:21;0.37;88.30
66096;SHT31;53861;53.422;14.530;2023-02-26T06:15:51;0.40;87.51
66096;SHT31;53861;53.422;14.530;2023-02-26T06:18:20;0.51;87.60
66096;SHT31;53861;53.422;14.530;2023-02-26T06:20:52;0.57;88.70
66096;SHT31;53861;53.422;14.530;2023-02-26T06:23:19;0.54;88.02
66096;SHT31;53861;53.422;14.530;2023-02-26T06:25:46;0.52;88.58
66096;SHT31;53861;53.422;14.530;2023-02-26T06:28:13;0.44;85.97
66096;SHT31;53861;53.422;14.530;2023-02-26T06:30:42;0.52;88.18
66096;SHT31;53861;53.422;14.530;2023-02-26T06:33:09;0.49;86.69
66096;SHT31;53861;53.422;14.530;2023-02-26T06:35:37;0.52;86.67
66096;SHT31;53861;53.422;14.530;2023-02-26T06:38:04;0.55;86.36
66096;SHT31;53861;53.422;14.530;2023-02-26T06:40:32;0.69;87.33
66096;SHT31;53861;53.422;14.530;2023-02-26T06:42:59;0.88;85.85
66096;SHT31;53861;53.422;14.530;2023-02-26T06:45:26;1.17;86.02
66096;SHT31;53861;53.422;14.530;2023-02-26T06:47:57;1.40;84.79
66096;SHT31;53861;53.422;14.530;2023-02-26T06:50:24;1.47;83.50
66096;SHT31;53861;53.422;14.530;2023-02-26T06:52:51;1.67;83.73
66096;SHT31;53861;53.422;14.530;2023-02-26T06:55:19;1.79;84.27
66096;SHT31;53861;53.422;14.530;2023-02-26T06:57:51;1.78;83.06
66096;SHT31;53861;53.422;14.530;2023-02-26T07:00:18;1.94;85.22
66096;SHT31;53861;53.422;14.530;2023-02-26T07:02:45;1.91;82.75
66096;SHT31;53861;53.422;14.530;2023-02-26T07:05:16;1.71;81.85
66096;SHT31;53861;53.422;14.530;2023-02-26T07:07:43;1.63;82.25
66096;SHT31;53861;53.422;14.530;2023-02-26T07:10:11;1.51;85.13
66096;SHT31;53861;53.422;14.530;2023-02-26T07:12:38;1.34;83.09
66096;SHT31;53861;53.422;14.530;2023-02-26T07:15:05;1.19;82.66
66096;SHT31;53861;53.422;14.530;2023-02-26T07:17:32;1.26;82.69
66096;SHT31;53861;53.422;14.530;2023-02-26T07:19:59;1.43;81.41
66096;SHT31;53861;53.422;14.530;2023-02-26T07:22:32;1.61;81.49
66096;SHT31;53861;53.422;14.530;2023-02-26T07:24:59;1.77;82.71
66096;SHT31;53861;53.422;14.530;2023-02-26T07:27:26;1.86;81.33
66096;SHT31;53861;53.422;14.530;2023-02-26T07:29:54;1.85;82.78
66096;SHT31;53861;53.422;14.530;2023-02-26T07:32:21;1.85;81.58
66096;SHT31;53861;53.422;14.530;2023-02-26T07:34:48;2.04;81.31
66096;SHT31;53861;53.422;14.530;2023-02-26T07:37:15;2.05;80.96
66096;SHT31;53861;53.422;14.530;2023-02-26T07:39:43;2.79;81.50
66096;SHT31;53861;53.422;14.530;2023-02-26T07:42:10;2.97;79.47
66096;SHT31;53861;53.422;14.530;2023-02-26T07:44:37;4.57;77.12
66096;SHT31;53861;53.422;14.530;2023-02-26T07:47:04;6.29;70.98
66096;SHT31;53861;53.422;14.530;2023-02-26T07:49:34;8.14;65.99
66096;SHT31;53861;53.422;14.530;2023-02-26T07:52:02;9.08;63.56
66096;SHT31;53861;53.422;14.530;2023-02-26T07:54:30;8.20;60.62
66096;SHT31;53861;53.422;14.530;2023-02-26T07:56:58;8.94;60.57
66096;SHT31;53861;53.422;14.530;2023-02-26T07:59:25;9.15;59.22
66096;SHT31;53861;53.422;14.530;2023-02-26T08:01:54;8.81;61.37
66096;SHT31;53861;53.422;14.530;2023-02-26T08:04:24;9.32;60.48
66096;SHT31;53861;53.422;14.530;2023-02-26T08:06:53;10.27;57.58
66096;SHT31;53861;53.422;14.530;2023-02-26T08:09:21;10.79;57.23
66096;SHT31;53861;53.422;14.530;2023-02-26T08:11:48;12.10;51.71
66096;SHT31;53861;53.422;14.530;2023-02-26T08:14:17;12.63;52.59
66096;SHT31;53861;53.422;14.530;2023-02-26T08:16:44;12.72;50.35
66096;SHT31;53861;53.422;14.530;2023-02-26T08:19:11;13.13;52.89
66096;SHT31;53861;53.422;14.530;2023-02-26T08:21:39;10.64;54.49
66096;SHT31;53861;53.422;14.530;2023-02-26T08:24:06;10.04;56.49
66096;SHT31;53861;53.422;14.530;2023-02-26T08:26:34;8.70;59.69
66096;SHT31;53861;53.422;14.530;2023-02-26T08:29:04;8.34;60.73
66096;SHT31;53861;53.422;14.530;2023-02-26T08:31:33;9.05;59.65
66096;SHT31;53861;53.422;14.530;2023-02-26T08:34:00;7.51;62.87
66096;SHT31;53861;53.422;14.530;2023-02-26T08:36:27;7.76;64.65
66096;SHT31;53861;53.422;14.530;2023-02-26T08:38:54;8.46;60.32
66096;SHT31;53861;53.422;14.530;2023-02-26T08:41:21;7.47;61.67
66096;SHT31;53861;53.422;14.530;2023-02-26T08:43:48;6.76;66.03
66096;SHT31;53861;53.422;14.530;2023-02-26T08:46:15;7.81;64.87
66096;SHT31;53861;53.422;14.530;2023-02-26T08:48:44;8.94;64.56
66096;SHT31;53861;53.422;14.530;2023-02-26T08:51:14;8.65;62.50
66096;SHT31;53861;53.422;14.530;2023-02-26T08:53:40;9.90;59.38
66096;SHT31;53861;53.422;14.530;2023-02-26T08:56:12;8.49;62.66
66096;SHT31;53861;53.422;14.530;2023-02-26T08:58:39;8.07;63.17
66096;SHT31;53861;53.422;14.530;2023-02-26T09:01:06;8.65;61.73
66096;SHT31;53861;53.422;14.530;2023-02-26T09:03:33;10.25;56.97
66096;SHT31;53861;53.422;14.530;2023-02-26T09:06:01;9.12;58.96
66096;SHT31;53861;53.422;14.530;2023-02-26T09:08:29;9.49;57.91
66096;SHT31;53861;53.422;14.530;2023-02-26T09:10:58;9.23;64.36
66096;SHT31;53861;53.422;14.530;2023-02-26T09:13:25;9.45;56.89
66096;SHT31;53861;53.422;14.530;2023-02-26T09:15:52;8.46;62.04
66096;SHT31;53861;53.422;14.530;2023-02-26T09:18:19;9.62;57.29
66096;SHT31;53861;53.422;14.530;2023-02-26T09:20:51;10.16;54.31
66096;SHT31;53861;53.422;14.530;2023-02-26T09:23:29;8.39;59.59
66096;SHT31;53861;53.422;14.530;2023-02-26T09:25:58;7.24;64.81
66096;SHT31;53861;53.422;14.530;2023-02-26T09:28:27;9.15;58.71
66096;SHT31;53861;53.422;14.530;2023-02-26T09:30:54;11.30;61.59
66096;SHT31;53861;53.422;14.530;2023-02-26T09:33:24;12.14;55.16
66096;SHT31;53861;53.422;14.530;2023-02-26T09:35:54;12.75;50.01
66096;SHT31;53861;53.422;14.530;2023-02-26T09:38:21;11.50;55.81
66096;SHT31;53861;53.422;14.530;2023-02-26T09:40:51;13.10;49.61
66096;SHT31;53861;53.422;14.530;2023-02-26T09:43:25;9.79;56.77
66096;SHT31;53861;53.422;14.530;2023-02-26T09:45:54;8.77;58.50
66096;SHT31;53861;53.422;14.530;2023-02-26T09:48:22;9.89;60.82
66096;SHT31;53861;53.422;14.530;2023-02-26T09:50:51;13.02;53.01
66096;SHT31;53861;53.422;14.530;2023-02-26T09:53:22;11.31;50.96
66096;SHT31;53861;53.422;14.530;2023-02-26T09:55:55;9.80;51.80
66096;SHT31;53861;53.422;14.530;2023-02-26T09:58:26;7.99;57.64
66096;SHT31;53861;53.422;14.530;2023-02-26T10:00:57;7.32;61.51
66096;SHT31;53861;53.422;14.530;2023-02-26T10:03:28;7.64;59.53
66096;SHT31;53861;53.422;14.530;2023-02-26T10:06:04;8.44;56.60
66096;SHT31;53861;53.422;14.530;2023-02-26T10:08:35;8.89;58.70
66096;SHT31;53861;53.422;14.530;2023-02-26T10:11:06;10.47;55.66
66096;SHT31;53861;53.422;14.530;2023-02-26T10:13:41;12.84;51.80
66096;SHT31;53861;53.422;14.530;2023-02-26T10:16:13;13.14;48.85
66096;SHT31;53861;53.422;14.530;2023-02-26T10:18:41;14.05;51.59
66096;SHT31;53861;53.422;14.530;2023-02-26T10:21:10;14.22;44.99
66096;SHT31;53861;53.422;14.530;2023-02-26T10:23:45;13.17;48.24
66096;SHT31;53861;53.422;14.530;2023-02-26T10:26:21;14.61;48.12
66096;SHT31;53861;53.422;14.530;2023-02-26T10:28:52;14.66;44.68
66096;SHT31;53861;53.422;14.530;2023-02-26T10:31:22;15.75;44.69
66096;SHT31;53861;53.422;14.530;2023-02-26T10:33:54;16.06;43.57
66096;SHT31;53861;53.422;14.530;2023-02-26T10:36:53;15.90;40.44
66096;SHT31;53861;53.422;14.530;2023-02-26T10:39:26;14.32;42.91
66096;SHT31;53861;53.422;14.530;2023-02-26T10:41:58;13.40;44.32
66096;SHT31;53861;53.422;14.530;2023-02-26T10:44:27;15.87;43.24
66096;SHT31;53861;53.422;14.530;2023-02-26T10:46:58;16.12;43.27
66096;SHT31;53861;53.422;14.530;2023-02-26T10:52:16;15.99;38.51
66096;SHT31;53861;53.422;14.530;2023-02-26T10:54:46;15.10;42.79
66096;SHT31;53861;53.422;14.530;2023-02-26T10:57:18;15.58;46.79
66096;SHT31;53861;53.422;14.530;2023-02-26T10:59:46;16.53;41.97
66096;SHT31;53861;53.422;14.530;2023-02-26T11:02:24;15.45;44.63
66096;SHT31;53861;53.422;14.530;2023-02-26T11:04:55;15.48;44.02
66096;SHT31;53861;53.422;14.530;2023-02-26T11:07:25;15.75;45.74
66096;SHT31;53861;53.422;14.530;2023-02-26T11:09:54;16.47;41.57
66096;SHT31;53861;53.422;14.530;2023-02-26T11:12:23;17.62;39.64
66096;SHT31;53861;53.422;14.530;2023-02-26T11:14:51;15.56;40.75
66096;SHT31;53861;53.422;14.530;2023-02-26T11:17:19;15.87;39.45
66096;SHT31;53861;53.422;14.530;2023-02-26T11:19:49;16.98;39.10
66096;SHT31;53861;53.422;14.530;2023-02-26T11:22:18;16.41;41.92
66096;SHT31;53861;53.422;14.530;2023-02-26T11:24:46;18.05;35.44
66096;SHT31;53861;53.422;14.530;2023-02-26T11:27:15;14.94;39.93
66096;SHT31;53861;53.422;14.530;2023-02-26T11:29:45;14.77;38.40
66096;SHT31;53861;53.422;14.530;2023-02-26T11:32:15;13.37;41.03
66096;SHT31;53861;53.422;14.530;2023-02-26T11:34:45;11.82;41.66
66096;SHT31;53861;53.422;14.530;2023-02-26T11:37:12;12.57;44.77
66096;SHT31;53861;53.422;14.530;2023-02-26T11:39:43;14.55;43.57
66096;SHT31;53861;53.422;14.530;2023-02-26T11:42:10;15.41;36.46
66096;SHT31;53861;53.422;14.530;2023-02-26T11:44:37;16.74;39.99
66096;SHT31;53861;53.422;14.530;2023-02-26T11:47:09;15.87;37.75
66096;SHT31;53861;53.422;14.530;2023-02-26T11:49:39;16.60;37.92
66096;SHT31;53861;53.422;14.530;2023-02-26T11:52:15;16.44;37.82
66096;SHT31;53861;53.422;14.530;2023-02-26T11:54:43;17.02;35.18
66096;SHT31;53861;53.422;14.530;2023-02-26T11:57:14;16.18;38.07
66096;SHT31;53861;53.422;14.530;2023-02-26T11:59:42;17.22;34.65
66096;SHT31;53861;53.422;14.530;2023-02-26T12:02:12;16.54;37.08
66096;SHT31;53861;53.422;14.530;2023-02-26T12:04:42;17.74;34.07
66096;SHT31;53861;53.422;14.530;2023-02-26T12:07:10;18.86;35.59
66096;SHT31;53861;53.422;14.530;2023-02-26T12:09:38;18.27;38.13
66096;SHT31;53861;53.422;14.530;2023-02-26T12:12:08;17.70;35.37
66096;SHT31;53861;53.422;14.530;2023-02-26T12:14:41;15.35;36.25
66096;SHT31;53861;53.422;14.530;2023-02-26T12:20:03;15.61;41.10
66096;SHT31;53861;53.422;14.530;2023-02-26T12:22:44;15.24;34.84
66096;SHT31;53861;53.422;14.530;2023-02-26T12:25:28;14.51;36.22
66096;SHT31;53861;53.422;14.530;2023-02-26T12:28:02;13.67;42.29
66096;SHT31;53861;53.422;14.530;2023-02-26T12:30:39;12.33;43.85
66096;SHT31;53861;53.422;14.530;2023-02-26T12:33:11;14.46;38.16
66096;SHT31;53861;53.422;14.530;2023-02-26T12:35:46;15.49;39.68
66096;SHT31;53861;53.422;14.530;2023-02-26T12:38:19;12.94;40.54
66096;SHT31;53861;53.422;14.530;2023-02-26T12:43:42;13.45;41.94
66096;SHT31;53861;53.422;14.530;2023-02-26T12:46:13;12.28;44.07
66096;SHT31;53861;53.422;14.530;2023-02-26T12:48:46;10.99;47.82
66096;SHT31;53861;53.422;14.530;2023-02-26T12:51:23;10.58;45.75
66096;SHT31;53861;53.422;14.530;2023-02-26T12:54:00;10.18;50.35
66096;SHT31;53861;53.422;14.530;2023-02-26T12:56:48;9.62;48.72
66096;SHT31;53861;53.422;14.530;2023-02-26T12:59:28;9.90;51.49
66096;SHT31;53861;53.422;14.530;2023-02-26T13:02:05;11.34;46.41
66096;SHT31;53861;53.422;14.530;2023-02-26T13:04:48;11.95;47.47
66096;SHT31;53861;53.422;14.530;2023-02-26T13:10:05;13.24;43.26
66096;SHT31;53861;53.422;14.530;2023-02-26T13:12:39;11.90;47.50
66096;SHT31;53861;53.422;14.530;2023-02-26T13:15:29;10.82;47.62
66096;SHT31;53861;53.422;14.530;2023-02-26T13:18:07;10.14;45.64
66096;SHT31;53861;53.422;14.530;2023-02-26T13:20:44;10.54;48.84
66096;SHT31;53861;53.422;14.530;2023-02-26T13:23:16;10.88;47.19
66096;SHT31;53861;53.422;14.530;2023-02-26T13:25:46;11.41;46.78
66096;SHT31;53861;53.422;14.530;2023-02-26T13:28:19;12.10;50.01
66096;SHT31;53861;53.422;14.530;2023-02-26T13:30:48;11.15;44.35
66096;SHT31;53861;53.422;14.530;2023-02-26T13:33:16;9.96;51.11
66096;SHT31;53861;53.422;14.530;2023-02-26T13:35:43;9.10;50.47
66096;SHT31;53861;53.422;14.530;2023-02-26T13:38:13;8.70;53.86
66096;SHT31;53861;53.422;14.530;2023-02-26T13:40:44;8.12;56.05
66096;SHT31;53861;53.422;14.530;2023-02-26T13:43:18;7.79;53.04
66096;SHT31;53861;53.422;14.530;2023-02-26T13:45:51;7.13;53.65
66096;SHT31;53861;53.422;14.530;2023-02-26T13:48:21;8.03;54.35
66096;SHT31;53861;53.422;14.530;2023-02-26T13:50:56;9.00;50.74
66096;SHT31;53861;53.422;14.530;2023-02-26T13:53:34;9.45;49.12
66096;SHT31;53861;53.422;14.530;2023-02-26T13:56:05;9.45;51.11
66096;SHT31;53861;53.422;14.530;2023-02-26T13:58:36;9.66;50.24
66096;SHT31;53861;53.422;14.530;2023-02-26T14:01:07;9.43;48.33
66096;SHT31;53861;53.422;14.530;2023-02-26T14:03:35;9.29;50.21
66096;SHT31;53861;53.422;14.530;2023-02-26T14:06:06;9.82;50.08
66096;SHT31;53861;53.422;14.530;2023-02-26T14:08:44;9.77;47.88
66096;SHT31;53861;53.422;14.530;2023-02-26T14:11:24;9.91;49.34
66096;SHT31;53861;53.422;14.530;2023-02-26T14:14:09;10.51;51.82
66096;SHT31;53861;53.422;14.530;2023-02-26T14:16:41;10.28;51.49
66096;SHT31;53861;53.422;14.530;2023-02-26T14:19:22;9.10;47.72
66096;SHT31;53861;53.422;14.530;2023-02-26T14:21:52;8.23;50.68
66096;SHT31;53861;53.422;14.530;2023-02-26T14:24:23;7.59;55.13
66096;SHT31;53861;53.422;14.530;2023-02-26T14:27:02;7.34;54.09
66096;SHT31;53861;53.422;14.530;2023-02-26T14:29:38;7.27;53.77
66096;SHT31;53861;53.422;14.530;2023-02-26T14:32:12;6.79;57.77
66096;SHT31;53861;53.422;14.530;2023-02-26T14:34:43;6.53;56.58
66096;SHT31;53861;53.422;14.530;2023-02-26T14:37:13;5.86;58.15
66096;SHT31;53861;53.422;14.530;2023-02-26T14:39:41;6.15;57.46
66096;SHT31;53861;53.422;14.530;2023-02-26T14:42:11;6.07;58.86
66096;SHT31;53861;53.422;14.530;2023-02-26T14:44:41;6.04;56.38
66096;SHT31;53861;53.422;14.530;2023-02-26T14:47:08;5.86;58.56
66096;SHT31;53861;53.422;14.530;2023-02-26T14:49:37;5.71;61.99
66096;SHT31;53861;53.422;14.530;2023-02-26T14:54:49;5.53;64.93
66096;SHT31;53861;53.422;14.530;2023-02-26T14:57:21;5.44;60.55
66096;SHT31;53861;53.422;14.530;2023-02-26T14:59:58;5.44;58.97
66096;SHT31;53861;53.422;14.530;2023-02-26T15:02:36;5.22;60.39
66096;SHT31;53861;53.422;14.530;2023-02-26T15:05:14;5.32;61.54
66096;SHT31;53861;53.422;14.530;2023-02-26T15:10:33;4.93;63.66
66096;SHT31;53861;53.422;14.530;2023-02-26T15:13:15;4.68;63.95
66096;SHT31;53861;53.422;14.530;2023-02-26T15:15:50;4.79;65.62
66096;SHT31;53861;53.422;14.530;2023-02-26T15:18:24;4.82;63.34
66096;SHT31;53861;53.422;14.530;2023-02-26T15:20:56;4.86;63.65
66096;SHT31;53861;53.422;14.530;2023-02-26T15:23:37;5.23;63.59
66096;SHT31;53861;53.422;14.530;2023-02-26T15:26:05;5.18;66.03
66096;SHT31;53861;53.422;14.530;2023-02-26T15:28:33;5.29;63.90
66096;SHT31;53861;53.422;14.530;2023-02-26T15:31:04;5.23;65.30
66096;SHT31;53861;53.422;14.530;2023-02-26T15:33:32;5.00;65.19
66096;SHT31;53861;53.422;14.530;2023-02-26T15:35:59;4.89;67.80
66096;SHT31;53861;53.422;14.530;2023-02-26T15:38:38;4.91;64.50
66096;SHT31;53861;53.422;14.530;2023-02-26T15:41:05;4.84;64.36
66096;SHT31;53861;53.422;14.530;2023-02-26T15:43:32;4.69;62.45
66096;SHT31;53861;53.422;14.530;2023-02-26T15:45:59;4.58;62.82
66096;SHT31;53861;53.422;14.530;2023-02-26T15:48:28;4.37;64.50
66096;SHT31;53861;53.422;14.530;2023-02-26T15:50:57;4.51;67.19
66096;SHT31;53861;53.422;14.530;2023-02-26T15:53:27;4.47;66.12
66096;SHT31;53861;53.422;14.530;2023-02-26T15:55:55;4.30;69.02
66096;SHT31;53861;53.422;14.530;2023-02-26T15:58:27;4.36;68.49
66096;SHT31;53861;53.422;14.530;2023-02-26T16:00:58;4.40;66.57